Latest Weather Observations for Yunta

IDS60801

Issued at 5:02 pm CDT Saturday 28 February 2015 (issued every 30 minutes, with the page automatically refreshed every 10 minutes)

About weather observations | Map of weather stations | Latest weather observations for SA | Other Formats
Station Details ID: 020062 Name: YUNTA AIRSTRIP Lat: -32.57 Lon: 139.56 Height: 300.0 m
Data from the previous 72 hours. | See also: Recent months at Yunta
Date/Time
CDT
Temp
°C
App
Temp
°C
Dew
Point
Rel
Hum
%
Delta-T
°C
Wind Press
QNH
hPa
Press
MSL
hPa
Rain
since 9 am
mm
Dir
 
Spd
km/h
Gust
km/h
Spd
kts
Gust
kts
28/05:00pm 38.7 32.5 4.2 12 18.9 WNW 26 39 14 21 1003.2 1001.6 0.0
28/04:30pm 38.5 32.4 2.8 11 19.1 W 24 43 13 23 1003.1 1001.5 0.0
28/04:00pm 38.1 33.1 3.8 12 18.5 W 19 33 10 18 1003.3 1001.7 0.0
28/03:30pm 38.6 32.1 2.9 11 19.2 W 26 43 14 23 1003.6 1002.0 0.0
28/03:00pm 38.3 33.5 2.7 11 19.0 WNW 17 32 9 17 1003.8 1002.2 0.0
28/02:30pm 38.1 31.8 3.8 12 18.6 W 26 44 14 24 1004.1 1002.6 0.0
28/02:28pm 38.1 31.4 3.8 12 18.5 W 28 44 15 24 1004.2 1002.7 0.0
28/02:00pm 38.3 33.7 3.9 12 18.6 NW 17 30 9 16 1004.6 1003.1 0.0
28/01:36pm 38.4 32.1 4.0 12 18.7 WNW 26 61 14 33 1005.1 1003.5 0.0
28/01:30pm 37.7 31.9 4.6 13 18.1 NW 24 61 13 33 1005.0 1003.4 0.0
28/01:00pm 37.2 32.0 5.3 14 17.6 WNW 22 33 12 18 1005.6 1004.0 0.0
28/12:30pm 36.4 30.4 3.6 13 17.6 NW 24 43 13 23 1006.0 1004.4 0.0
28/12:00pm 35.5 29.2 3.9 14 16.9 NW 26 37 14 20 1006.6 1005.0 0.0
28/11:30am 35.3 29.2 4.8 15 16.5 NNW 26 35 14 19 1006.7 1005.1 0.0
28/11:00am 34.5 27.9 5.9 17 15.7 NNW 30 43 16 23 1006.6 1005.0 0.0
28/10:30am 33.4 26.8 5.9 18 15.0 NNW 30 39 16 21 1006.9 1005.4 0.0
28/10:00am 32.5 26.6 5.9 19 14.4 N 26 37 14 20 1007.1 1005.6 0.0
28/09:30am 31.6 26.5 5.9 20 13.9 N 22 32 12 17 1007.0 1005.5 0.0
28/09:00am 29.6 26.4 6.9 24 12.4 N 13 20 7 11 1007.1 1005.6 0.0
28/08:30am 26.8 26.4 8.3 31 10.2 CALM 0 6 0 3 1007.0 1005.5 0.0
28/08:00am 23.6 23.6 11.0 45 7.1 N 2 6 1 3 1006.9 1005.4 0.0
28/07:30am 19.8 19.6 9.1 50 5.7 CALM 0 0 0 0 1006.7 1005.1 0.0
28/07:00am 19.7 19.6 9.3 51 5.6 CALM 0 0 0 0 1006.5 1004.9 0.0
28/06:30am 20.5 20.5 9.7 50 5.9 CALM 0 0 0 0 1006.5 1004.9 0.0
28/06:00am 20.7 20.3 9.6 49 6.0 NW 2 4 1 2 1006.3 1004.7 0.0
28/05:30am 21.5 21.5 9.7 47 6.5 CALM 0 4 0 2 1006.3 1004.7 0.0
28/05:00am 24.4 24.1 11.4 44 7.4 S 4 9 2 5 1006.3 1004.7 0.0
28/04:30am 25.3 25.3 11.1 41 8.1 SSW 2 6 1 3 1006.3 1004.7 0.0
28/04:00am 25.7 25.8 10.3 38 8.7 CALM 0 6 0 3 1006.3 1004.7 0.0
28/03:30am 26.8 24.6 10.9 37 9.1 SE 13 17 7 9 1006.5 1004.9 0.0
28/03:00am 27.8 25.7 9.6 32 10.3 SSE 11 13 6 7 1006.7 1005.1 0.0
28/02:30am 28.4 27.8 7.6 27 11.4 CALM 0 4 0 2 1006.5 1004.9 0.0
28/02:00am 28.3 25.3 7.5 27 11.3 SSW 13 17 7 9 1006.8 1005.2 0.0
28/01:30am 28.5 27.1 7.1 26 11.6 NW 4 6 2 3 1006.9 1005.4 0.0
28/01:00am 28.8 28.1 6.8 25 11.9 CALM 0 0 0 0 1007.3 1005.8 0.0
28/12:30am 29.4 27.1 7.3 25 12.1 NE 9 11 5 6 1007.4 1005.9 0.0
28/12:00am 29.7 26.9 7.0 24 12.4 NE 11 15 6 8 1007.6 1006.1 0.0
 
Date/Time
CDT
Temp
°C
App
Temp
°C
Dew
Point
Rel
Hum
%
Delta-T
°C
Wind Press
QNH
hPa
Press
MSL
hPa
Rain
since 9 am
mm
Dir
 
Spd
km/h
Gust
km/h
Spd
kts
Gust
kts
27/11:30pm 30.1 26.9 6.7 23 12.7 NE 13 17 7 9 1007.8 1006.3 0.0
27/11:00pm 30.3 27.5 6.9 23 12.8 NE 11 15 6 8 1007.9 1006.4 0.0
27/10:30pm 30.2 27.8 6.8 23 12.8 NE 9 15 5 8 1008.0 1006.5 0.0
27/10:00pm 30.2 27.8 6.8 23 12.7 NE 9 11 5 6 1008.1 1006.6 0.0
27/09:30pm 29.6 27.3 5.6 22 12.8 NE 7 7 4 4 1007.9 1006.4 0.0
27/09:00pm 29.7 27.3 5.1 21 13.0 E 7 9 4 5 1007.6 1006.1 0.0
27/08:30pm 30.9 28.5 5.3 20 13.7 E 7 9 4 5 1007.3 1005.8 0.0
27/08:00pm 31.8 29.3 4.6 18 14.4 ESE 7 11 4 6 1007.0 1005.5 0.0
27/07:30pm 32.8 30.5 4.6 17 15.0 SE 6 9 3 5 1006.8 1005.2 0.0
27/07:00pm 33.3 30.1 5.0 17 15.2 SE 11 15 6 8 1006.7 1005.1 0.0
27/06:30pm 33.5 30.9 4.2 16 15.6 SE 7 15 4 8 1006.9 1005.4 0.0
27/06:00pm 34.1 31.2 4.7 16 15.8 SE 9 15 5 8 1006.9 1005.4 0.0
27/05:30pm 34.0 31.1 4.6 16 15.8 NE 9 17 5 9 1006.7 1005.1 0.0
27/05:00pm 34.0 30.7 4.6 16 15.7 NE 11 20 6 11 1007.0 1005.5 0.0
27/04:30pm 34.6 31.8 5.1 16 16.0 NE 9 15 5 8 1006.8 1005.2 0.0
27/04:00pm 35.0 32.3 3.5 14 16.7 SSW 7 13 4 7 1007.1 1005.6 0.0
27/03:30pm 35.0 31.5 3.5 14 16.7 ESE 11 39 6 21 1007.2 1005.7 0.0
27/03:00pm 34.4 32.3 4.0 15 16.2 W 4 9 2 5 1007.7 1006.2 0.0
27/02:30pm 34.4 32.1 5.8 17 15.7 S 7 11 4 6 1008.3 1006.8 0.0
27/02:00pm 34.0 31.8 5.5 17 15.5 N 6 13 3 7 1008.9 1007.3 0.0
27/01:30pm 34.1 32.5 8.0 20 14.8 S 6 15 3 8 1009.3 1007.7 0.0
27/01:00pm 32.2 31.1 8.4 23 13.4 SE 4 9 2 5 1009.7 1008.1 0.0
27/12:30pm 31.8 30.8 8.7 24 13.1 SW 4 9 2 5 1010.1 1008.6 0.0
27/12:00pm 30.4 29.5 9.3 27 12.0 SSE 4 7 2 4 1010.7 1009.2 0.0
27/11:30am 29.6 29.1 9.2 28 11.5 S 2 4 1 2 1011.0 1009.5 0.0
27/11:00am 27.9 26.6 9.2 31 10.5 NE 6 9 3 5 1011.4 1009.9 0.0
27/10:30am 26.8 25.6 9.6 34 9.6 ESE 6 11 3 6 1011.6 1010.1 0.0
27/10:00am 25.2 23.8 9.5 37 8.7 SE 7 13 4 7 1011.7 1010.2 0.0
27/09:30am 24.5 22.8 10.0 40 8.1 ESE 9 13 5 7 1011.6 1010.1 0.0
27/09:00am 23.1 21.9 9.5 42 7.5 SSE 6 9 3 5 1011.6 1010.1 0.0
27/08:30am 21.1 20.1 9.0 46 6.5 SSW 4 6 2 3 1011.7 1010.2 0.0
27/08:00am 19.5 19.2 8.5 49 5.8 CALM 0 2 0 1 1011.8 1010.3 0.0
27/07:30am 17.8 17.1 8.4 54 4.9 SW 2 4 1 2 1011.8 1010.3 0.0
27/07:00am 16.2 14.2 6.9 54 4.7 SSW 7 9 4 5 1011.7 1010.2 0.0
27/06:30am 17.3 15.4 7.6 53 5.0 SW 7 9 4 5 1011.1 1009.6 0.0
27/06:00am 17.9 15.3 7.9 52 5.2 W 11 11 6 6 1010.8 1009.3 0.0
27/05:30am 17.9 15.9 7.0 49 5.5 WSW 7 9 4 5 1010.4 1008.9 0.0
27/05:00am 17.3 15.9 5.3 45 5.9 SW 2 6 1 3 1010.3 1008.8 0.0
27/04:30am 18.1 16.4 5.7 44 6.2 W 4 6 2 3 1010.3 1008.8 0.0
27/04:00am 18.9 17.6 6.1 43 6.4 W 2 2 1 1 1010.4 1008.9 0.0
27/03:30am 20.0 17.9 6.0 40 7.1 SW 6 7 3 4 1010.4 1008.9 0.0
27/03:00am 21.6 19.4 5.5 35 8.1 SSE 6 9 3 5 1010.3 1008.8 0.0
27/02:30am 22.4 20.1 7.4 38 7.9 SE 9 13 5 7 1010.4 1008.9 0.0
27/02:00am 20.4 17.6 3.2 32 8.2 S 7 9 4 5 1010.6 1009.1 0.0
27/01:30am 19.5 16.6 2.4 32 8.0 WSW 7 11 4 6 1010.7 1009.2 0.0
27/01:00am 20.9 18.7 3.6 32 8.4 S 4 6 2 3 1010.8 1009.3 0.0
27/12:30am 23.6 22.5 5.0 30 9.4 CALM 0 2 0 1 1010.9 1009.4 0.0
27/12:00am 23.2 21.4 3.7 28 9.6 N 2 4 1 2 1011.1 1009.6 0.0
 
Date/Time
CDT
Temp
°C
App
Temp
°C
Dew
Point
Rel
Hum
%
Delta-T
°C
Wind Press
QNH
hPa
Press
MSL
hPa
Rain
since 9 am
mm
Dir
 
Spd
km/h
Gust
km/h
Spd
kts
Gust
kts
26/11:30pm 22.7 20.5 3.3 28 9.5 NE 4 6 2 3 1011.1 1009.6 0.0
26/11:00pm 23.7 21.5 3.1 26 10.1 NNE 4 6 2 3 1011.1 1009.6 0.0
26/10:30pm 24.3 22.0 3.0 25 10.5 ENE 4 6 2 3 1011.2 1009.7 0.0
26/10:00pm 27.2 24.2 4.3 23 11.7 SE 9 13 5 7 1011.1 1009.6 0.0
26/09:30pm 27.5 24.5 3.9 22 12.0 SE 9 13 5 7 1010.9 1009.4 0.0
26/09:00pm 27.7 24.9 3.4 21 12.3 SSE 7 9 4 5 1010.6 1009.1 0.0
26/08:30pm 28.9 25.7 3.0 19 13.1 SSE 9 13 5 7 1010.2 1008.7 0.0
26/08:00pm 29.9 26.3 3.0 18 13.7 SSE 11 15 6 8 1010.0 1008.5 0.0
26/07:30pm 31.0 26.1 2.3 16 14.6 SE 17 24 9 13 1009.7 1008.1 0.0
26/07:00pm 31.9 27.0 2.1 15 15.1 SE 17 26 9 14 1009.3 1007.7 0.0
26/06:30pm 32.3 26.9 1.4 14 15.6 SSE 19 28 10 15 1009.2 1007.6 0.0
26/06:00pm 32.5 27.0 0.6 13 15.9 SSE 19 30 10 16 1009.0 1007.4 0.0
26/05:30pm 33.1 27.1 1.0 13 16.2 SE 22 32 12 17 1009.0 1007.4 0.0
26/05:00pm 33.0 27.4 -0.2 12 16.3 S 19 30 10 16 1009.0 1007.4 0.0
26/04:30pm 32.9 28.0 -0.2 12 16.3 S 15 30 8 16 1009.1 1007.5 0.0
26/04:00pm 32.8 27.0 -1.5 11 16.5 S 19 32 10 17 1009.3 1007.7 0.0
26/03:30pm 33.2 27.2 -1.2 11 16.7 SSE 20 32 11 17 1009.6 1008.0 0.0
26/03:00pm 32.2 26.7 -2.0 11 16.3 S 17 30 9 16 1009.8 1008.2 0.0
26/02:30pm 32.5 28.0 -3.0 10 16.7 S 11 24 6 13 1010.2 1008.7 0.0
26/02:00pm 30.8 25.6 -3.0 11 15.6 S 15 26 8 14 1010.5 1009.0 0.0
26/01:30pm 30.4 25.6 -2.2 12 15.3 S 13 22 7 12 1011.1 1009.6 0.0
26/01:00pm 29.6 25.2 -2.8 12 14.9 S 11 19 6 10 1011.5 1010.0 0.0
26/12:30pm 28.7 24.7 -2.4 13 14.3 S 9 17 5 9 1012.1 1010.5 0.0
26/12:00pm 27.5 24.1 -2.3 14 13.6 S 6 11 3 6 1012.5 1010.9 0.0
26/11:30am 25.6 22.6 -2.1 16 12.5 SSW 4 11 2 6 1013.0 1011.5 0.0
26/11:00am 24.7 21.2 -2.8 16 12.2 SSW 6 9 3 5 1013.4 1011.9 0.0
26/10:30am 23.1 19.2 -4.9 15 11.7 SE 7 13 4 7 1013.8 1012.3 0.0
26/10:00am 21.5 17.2 -4.5 17 10.8 S 9 15 5 8 1013.8 1012.3 0.0
26/09:30am 20.4 15.6 -2.6 21 9.8 S 13 17 7 9 1013.8 1012.3 0.0
26/09:00am 18.7 16.1 0.8 30 8.1 SSE 4 6 2 3 1013.7 1012.2 0.0
26/08:30am 17.6 14.6 0.7 32 7.5 SSW 6 11 3 6 1013.4 1011.9 0.0
26/08:00am 15.9 13.8 2.0 39 6.3 SW 2 6 1 3 1013.2 1011.7 0.0
26/07:30am 13.5 10.4 0.2 40 5.7 SSW 6 6 3 3 1012.8 1011.2 0.0
26/07:00am 13.5 10.7 -0.2 39 5.8 WSW 4 6 2 3 1012.3 1010.7 0.0
26/06:30am 14.4 11.2 0.6 39 6.0 WSW 7 9 4 5 1011.7 1010.2 0.0
26/06:00am 13.3 10.0 -1.1 37 5.9 SW 6 9 3 5 1011.6 1010.1 0.0
26/05:30am 14.1 11.3 -0.7 36 6.2 SW 4 6 2 3 1011.1 1009.6 0.0
26/05:00am 14.0 10.7 -1.2 35 6.3 SSW 6 7 3 4 1011.0 1009.5 0.0
26/04:30am 13.5 10.2 -1.6 35 6.2 SSW 6 7 3 4 1011.0 1009.5 0.0
26/04:00am 13.4 10.2 -3.4 31 6.6 SSW 4 4 2 2 1010.9 1009.4 0.0
26/03:30am 14.2 11.9 -2.7 31 6.8 CALM 0 2 0 1 1011.2 1009.7 0.0
26/03:00am 13.7 10.9 -3.1 31 6.7 WSW 2 4 1 2 1011.6 1010.1 0.0
26/02:30am 15.2 12.9 -2.2 30 7.1 CALM 0 0 0 0 1011.6 1010.1 0.0
26/02:00am 16.3 13.6 -2.2 28 7.7 SSW 2 6 1 3 1011.8 1010.3 0.0
26/01:30am 18.1 14.2 -1.2 27 8.3 SSW 9 13 5 7 1012.3 1010.7 0.0
26/01:00am 19.5 15.7 -1.0 25 9.0 SSW 9 11 5 6 1012.6 1011.0 0.0
26/12:30am 20.1 16.8 -1.1 24 9.3 SSW 6 7 3 4 1012.6 1011.0 0.0
26/12:00am 20.3 16.8 -1.5 23 9.5 SW 7 9 4 5 1012.8 1011.2 0.0
 
Date/Time
CDT
Temp
°C
App
Temp
°C
Dew
Point
Rel
Hum
%
Delta-T
°C
Wind Press
QNH
hPa
Press
MSL
hPa
Rain
since 9 am
mm
Dir
 
Spd
km/h
Gust
km/h
Spd
kts
Gust
kts
25/11:30pm 20.4 16.9 -1.4 23 9.6 SW 7 7 4 4 1012.6 1011.0 0.0
25/11:00pm 19.9 16.9 -1.8 23 9.4 SSW 4 6 2 3 1012.7 1011.1 0.0
25/10:30pm 21.6 18.6 -1.6 21 10.2 ESE 4 4 2 2 1012.5 1010.9 0.0
25/10:00pm 22.6 19.3 -1.5 20 10.7 ESE 6 9 3 5 1012.4 1010.8 0.0
25/09:30pm 23.7 20.2 -1.3 19 11.3 SE 7 9 4 5 1012.1 1010.5 0.0
25/09:00pm 24.4 20.9 -1.4 18 11.7 SE 7 9 4 5 1011.6 1010.1 0.0
25/08:30pm 25.7 21.8 -1.2 17 12.4 ESE 9 11 5 6 1011.4 1009.9 0.0
25/08:00pm 27.2 22.6 -0.8 16 13.1 SE 13 15 7 8 1011.3 1009.8 0.0
25/07:30pm 28.8 24.9 -1.3 14 14.1 SE 9 15 5 8 1011.2 1009.7 0.0
25/07:00pm 29.7 26.0 -2.7 12 14.9 SE 7 13 4 7 1011.1 1009.6 0.0
25/06:30pm 30.4 26.0 -2.2 12 15.3 S 11 15 6 8 1011.1 1009.6 0.0
25/06:00pm 29.8 25.9 -1.5 13 14.8 SSE 9 19 5 10 1011.1 1009.6 0.0
25/05:30pm 29.8 26.6 -0.5 14 14.5 E 6 13 3 7 1011.0 1009.5 0.0

Other Formats:

Comma delimited format used in spreadsheet applications
http://www.bom.gov.au/fwo/IDS60801/IDS60801.94684.axf

JavaScript Object Notation format (JSON) in row-major order
http://www.bom.gov.au/fwo/IDS60801/IDS60801.94684.json